sensor_id;sensor_type;location;lat;lon;timestamp;temperature;humidity
80290;SHT30;69592;44.804;-0.550;2023-06-26T00:01:27;21.99;80.66
80290;SHT30;69592;44.804;-0.550;2023-06-26T00:03:57;21.97;80.73
80290;SHT30;69592;44.804;-0.550;2023-06-26T00:06:22;21.90;81.09
80290;SHT30;69592;44.804;-0.550;2023-06-26T00:08:51;22.01;80.77
80290;SHT30;69592;44.804;-0.550;2023-06-26T00:11:18;21.89;81.17
80290;SHT30;69592;44.804;-0.550;2023-06-26T00:13:43;22.00;80.87
80290;SHT30;69592;44.804;-0.550;2023-06-26T00:16:08;22.03;80.68
80290;SHT30;69592;44.804;-0.550;2023-06-26T00:18:34;21.94;80.98
80290;SHT30;69592;44.804;-0.550;2023-06-26T00:20:59;21.93;81.06
80290;SHT30;69592;44.804;-0.550;2023-06-26T00:23:24;21.89;81.09
80290;SHT30;69592;44.804;-0.550;2023-06-26T00:25:50;21.86;81.22
80290;SHT30;69592;44.804;-0.550;2023-06-26T00:28:18;21.76;81.29
80290;SHT30;69592;44.804;-0.550;2023-06-26T00:30:43;21.70;81.69
80290;SHT30;69592;44.804;-0.550;2023-06-26T00:33:09;21.59;81.78
80290;SHT30;69592;44.804;-0.550;2023-06-26T00:35:34;21.59;81.94
80290;SHT30;69592;44.804;-0.550;2023-06-26T00:38:00;21.63;81.93
80290;SHT30;69592;44.804;-0.550;2023-06-26T00:40:26;21.65;81.82
80290;SHT30;69592;44.804;-0.550;2023-06-26T00:42:52;21.76;81.46
80290;SHT30;69592;44.804;-0.550;2023-06-26T00:45:18;21.89;81.13
80290;SHT30;69592;44.804;-0.550;2023-06-26T00:47:43;21.83;81.17
80290;SHT30;69592;44.804;-0.550;2023-06-26T00:50:09;21.85;81.22
80290;SHT30;69592;44.804;-0.550;2023-06-26T00:52:35;21.83;81.15
80290;SHT30;69592;44.804;-0.550;2023-06-26T00:55:01;21.89;81.09
80290;SHT30;69592;44.804;-0.550;2023-06-26T00:57:27;21.96;81.08
80290;SHT30;69592;44.804;-0.550;2023-06-26T00:59:52;21.92;80.94
80290;SHT30;69592;44.804;-0.550;2023-06-26T01:02:18;22.01;80.69
80290;SHT30;69592;44.804;-0.550;2023-06-26T01:04:47;21.94;80.79
80290;SHT30;69592;44.804;-0.550;2023-06-26T01:07:14;22.01;80.99
80290;SHT30;69592;44.804;-0.550;2023-06-26T01:09:40;22.01;80.63
80290;SHT30;69592;44.804;-0.550;2023-06-26T01:12:06;21.96;80.91
80290;SHT30;69592;44.804;-0.550;2023-06-26T01:14:31;21.99;80.69
80290;SHT30;69592;44.804;-0.550;2023-06-26T01:17:00;22.03;80.79
80290;SHT30;69592;44.804;-0.550;2023-06-26T01:19:28;22.17;81.03
80290;SHT30;69592;44.804;-0.550;2023-06-26T01:25:12;22.30;80.27
80290;SHT30;69592;44.804;-0.550;2023-06-26T01:27:44;22.31;80.33
80290;SHT30;69592;44.804;-0.550;2023-06-26T01:30:11;22.33;80.07
80290;SHT30;69592;44.804;-0.550;2023-06-26T01:32:37;22.24;80.06
80290;SHT30;69592;44.804;-0.550;2023-06-26T01:35:06;22.16;80.38
80290;SHT30;69592;44.804;-0.550;2023-06-26T01:37:32;21.99;80.88
80290;SHT30;69592;44.804;-0.550;2023-06-26T01:39:57;21.94;80.91
80290;SHT30;69592;44.804;-0.550;2023-06-26T01:42:22;21.87;81.32
80290;SHT30;69592;44.804;-0.550;2023-06-26T01:44:48;21.90;81.22
80290;SHT30;69592;44.804;-0.550;2023-06-26T01:47:16;21.89;81.22
80290;SHT30;69592;44.804;-0.550;2023-06-26T01:50:29;21.86;81.21
80290;SHT30;69592;44.804;-0.550;2023-06-26T01:55:40;21.85;81.59
80290;SHT30;69592;44.804;-0.550;2023-06-26T01:58:08;21.86;81.16
80290;SHT30;69592;44.804;-0.550;2023-06-26T02:00:34;21.92;81.23
80290;SHT30;69592;44.804;-0.550;2023-06-26T02:03:00;21.93;81.03
80290;SHT30;69592;44.804;-0.550;2023-06-26T02:05:26;21.92;80.95
80290;SHT30;69592;44.804;-0.550;2023-06-26T02:07:51;21.92;81.09
80290;SHT30;69592;44.804;-0.550;2023-06-26T02:10:17;21.86;81.29
80290;SHT30;69592;44.804;-0.550;2023-06-26T02:12:44;21.90;81.15
80290;SHT30;69592;44.804;-0.550;2023-06-26T02:15:09;21.90;81.07
80290;SHT30;69592;44.804;-0.550;2023-06-26T02:17:35;21.90;81.05
80290;SHT30;69592;44.804;-0.550;2023-06-26T02:20:00;21.87;81.33
80290;SHT30;69592;44.804;-0.550;2023-06-26T02:22:25;21.89;81.55
80290;SHT30;69592;44.804;-0.550;2023-06-26T02:24:51;21.89;81.41
80290;SHT30;69592;44.804;-0.550;2023-06-26T02:27:16;21.97;81.15
80290;SHT30;69592;44.804;-0.550;2023-06-26T02:29:42;21.94;80.78
80290;SHT30;69592;44.804;-0.550;2023-06-26T02:32:08;22.07;81.07
80290;SHT30;69592;44.804;-0.550;2023-06-26T02:34:34;22.13;80.77
80290;SHT30;69592;44.804;-0.550;2023-06-26T02:36:59;22.20;80.73
80290;SHT30;69592;44.804;-0.550;2023-06-26T02:39:26;22.21;80.69
80290;SHT30;69592;44.804;-0.550;2023-06-26T02:41:51;22.30;80.84
80290;SHT30;69592;44.804;-0.550;2023-06-26T02:44:16;22.37;79.97
80290;SHT30;69592;44.804;-0.550;2023-06-26T02:46:42;22.36;79.81
80290;SHT30;69592;44.804;-0.550;2023-06-26T02:49:08;22.41;80.10
80290;SHT30;69592;44.804;-0.550;2023-06-26T02:51:33;22.30;80.04
80290;SHT30;69592;44.804;-0.550;2023-06-26T02:53:59;22.21;80.29
80290;SHT30;69592;44.804;-0.550;2023-06-26T02:56:24;22.20;80.45
80290;SHT30;69592;44.804;-0.550;2023-06-26T02:58:57;22.14;80.75
80290;SHT30;69592;44.804;-0.550;2023-06-26T03:01:22;22.10;80.68
80290;SHT30;69592;44.804;-0.550;2023-06-26T03:03:48;22.18;80.76
80290;SHT30;69592;44.804;-0.550;2023-06-26T03:06:14;22.18;80.66
80290;SHT30;69592;44.804;-0.550;2023-06-26T03:08:40;22.20;80.56
80290;SHT30;69592;44.804;-0.550;2023-06-26T03:11:09;22.21;80.69
80290;SHT30;69592;44.804;-0.550;2023-06-26T03:13:35;22.07;81.09
80290;SHT30;69592;44.804;-0.550;2023-06-26T03:16:01;22.04;81.45
80290;SHT30;69592;44.804;-0.550;2023-06-26T03:18:27;22.11;81.33
80290;SHT30;69592;44.804;-0.550;2023-06-26T03:20:53;22.14;81.26
80290;SHT30;69592;44.804;-0.550;2023-06-26T03:23:21;22.13;81.26
80290;SHT30;69592;44.804;-0.550;2023-06-26T03:25:47;21.96;81.60
80290;SHT30;69592;44.804;-0.550;2023-06-26T03:28:13;21.85;81.92
80290;SHT30;69592;44.804;-0.550;2023-06-26T03:30:38;21.69;82.12
80290;SHT30;69592;44.804;-0.550;2023-06-26T03:33:04;21.62;82.42
80290;SHT30;69592;44.804;-0.550;2023-06-26T03:35:29;21.65;82.22
80290;SHT30;69592;44.804;-0.550;2023-06-26T03:37:54;21.66;82.35
80290;SHT30;69592;44.804;-0.550;2023-06-26T03:40:20;21.60;82.46
80290;SHT30;69592;44.804;-0.550;2023-06-26T03:42:45;21.70;82.19
80290;SHT30;69592;44.804;-0.550;2023-06-26T03:45:11;21.67;82.03
80290;SHT30;69592;44.804;-0.550;2023-06-26T03:47:36;21.50;82.50
80290;SHT30;69592;44.804;-0.550;2023-06-26T03:50:01;21.56;82.60
80290;SHT30;69592;44.804;-0.550;2023-06-26T03:52:30;21.50;82.42
80290;SHT30;69592;44.804;-0.550;2023-06-26T03:54:57;21.43;82.69
80290;SHT30;69592;44.804;-0.550;2023-06-26T03:57:25;21.25;83.27
80290;SHT30;69592;44.804;-0.550;2023-06-26T03:59:51;21.24;83.53
80290;SHT30;69592;44.804;-0.550;2023-06-26T04:02:17;21.32;83.26
80290;SHT30;69592;44.804;-0.550;2023-06-26T04:04:43;21.18;83.56
80290;SHT30;69592;44.804;-0.550;2023-06-26T04:07:08;21.18;83.63
80290;SHT30;69592;44.804;-0.550;2023-06-26T04:09:33;21.26;83.41
80290;SHT30;69592;44.804;-0.550;2023-06-26T04:11:59;21.25;83.42
80290;SHT30;69592;44.804;-0.550;2023-06-26T04:14:24;21.21;83.53
80290;SHT30;69592;44.804;-0.550;2023-06-26T04:16:50;21.32;83.26
80290;SHT30;69592;44.804;-0.550;2023-06-26T04:19:15;21.29;83.28
80290;SHT30;69592;44.804;-0.550;2023-06-26T04:21:41;21.19;83.61
80290;SHT30;69592;44.804;-0.550;2023-06-26T04:24:06;21.25;83.52
80290;SHT30;69592;44.804;-0.550;2023-06-26T04:26:32;21.16;83.78
80290;SHT30;69592;44.804;-0.550;2023-06-26T04:28:57;21.24;83.60
80290;SHT30;69592;44.804;-0.550;2023-06-26T04:31:23;21.28;83.48
80290;SHT30;69592;44.804;-0.550;2023-06-26T04:33:48;21.31;83.10
80290;SHT30;69592;44.804;-0.550;2023-06-26T04:36:16;21.41;82.90
80290;SHT30;69592;44.804;-0.550;2023-06-26T04:38:42;21.42;82.78
80290;SHT30;69592;44.804;-0.550;2023-06-26T04:41:07;21.36;83.00
80290;SHT30;69592;44.804;-0.550;2023-06-26T04:43:33;21.29;83.30
80290;SHT30;69592;44.804;-0.550;2023-06-26T04:45:58;21.32;83.09
80290;SHT30;69592;44.804;-0.550;2023-06-26T04:48:24;21.36;83.21
80290;SHT30;69592;44.804;-0.550;2023-06-26T04:50:49;21.39;82.95
80290;SHT30;69592;44.804;-0.550;2023-06-26T04:53:19;21.38;83.07
80290;SHT30;69592;44.804;-0.550;2023-06-26T04:55:45;21.46;82.76
80290;SHT30;69592;44.804;-0.550;2023-06-26T04:58:10;21.46;82.52
80290;SHT30;69592;44.804;-0.550;2023-06-26T05:00:36;21.39;82.75
80290;SHT30;69592;44.804;-0.550;2023-06-26T05:03:02;21.50;82.50
80290;SHT30;69592;44.804;-0.550;2023-06-26T05:05:27;21.56;82.26
80290;SHT30;69592;44.804;-0.550;2023-06-26T05:07:56;21.65;82.00
80290;SHT30;69592;44.804;-0.550;2023-06-26T05:10:21;21.69;81.69
80290;SHT30;69592;44.804;-0.550;2023-06-26T05:12:47;21.75;81.53
80290;SHT30;69592;44.804;-0.550;2023-06-26T05:15:12;21.89;81.39
80290;SHT30;69592;44.804;-0.550;2023-06-26T05:17:38;21.94;80.97
80290;SHT30;69592;44.804;-0.550;2023-06-26T05:20:04;21.94;80.77
80290;SHT30;69592;44.804;-0.550;2023-06-26T05:22:32;22.01;80.58
80290;SHT30;69592;44.804;-0.550;2023-06-26T05:24:58;21.99;80.55
80290;SHT30;69592;44.804;-0.550;2023-06-26T05:27:26;21.92;81.05
80290;SHT30;69592;44.804;-0.550;2023-06-26T05:29:51;21.70;81.38
80290;SHT30;69592;44.804;-0.550;2023-06-26T05:32:17;21.75;81.57
80290;SHT30;69592;44.804;-0.550;2023-06-26T05:34:45;21.89;81.26
80290;SHT30;69592;44.804;-0.550;2023-06-26T05:37:14;21.70;81.75
80290;SHT30;69592;44.804;-0.550;2023-06-26T05:39:43;21.65;81.93
80290;SHT30;69592;44.804;-0.550;2023-06-26T05:42:09;21.59;82.27
80290;SHT30;69592;44.804;-0.550;2023-06-26T05:44:35;21.59;82.36
80290;SHT30;69592;44.804;-0.550;2023-06-26T05:47:00;21.67;81.94
80290;SHT30;69592;44.804;-0.550;2023-06-26T05:49:25;21.63;81.48
80290;SHT30;69592;44.804;-0.550;2023-06-26T05:51:51;21.49;80.96
80290;SHT30;69592;44.804;-0.550;2023-06-26T05:54:17;21.39;80.83
80290;SHT30;69592;44.804;-0.550;2023-06-26T05:56:42;21.42;81.14
80290;SHT30;69592;44.804;-0.550;2023-06-26T05:59:08;21.59;81.13
80290;SHT30;69592;44.804;-0.550;2023-06-26T06:01:34;21.80;80.35
80290;SHT30;69592;44.804;-0.550;2023-06-26T06:04:00;21.85;80.04
80290;SHT30;69592;44.804;-0.550;2023-06-26T06:06:26;22.01;79.62
80290;SHT30;69592;44.804;-0.550;2023-06-26T06:08:51;22.07;79.40
80290;SHT30;69592;44.804;-0.550;2023-06-26T06:11:16;22.08;78.75
80290;SHT30;69592;44.804;-0.550;2023-06-26T06:13:42;22.24;78.13
80290;SHT30;69592;44.804;-0.550;2023-06-26T06:16:08;22.03;78.30
80290;SHT30;69592;44.804;-0.550;2023-06-26T06:18:33;22.04;78.46
80290;SHT30;69592;44.804;-0.550;2023-06-26T06:20:58;21.97;78.37
80290;SHT30;69592;44.804;-0.550;2023-06-26T06:23:24;22.22;77.86
80290;SHT30;69592;44.804;-0.550;2023-06-26T06:25:49;22.44;77.16
80290;SHT30;69592;44.804;-0.550;2023-06-26T06:28:14;22.51;76.67
80290;SHT30;69592;44.804;-0.550;2023-06-26T06:30:41;22.60;76.32
80290;SHT30;69592;44.804;-0.550;2023-06-26T06:33:07;22.37;76.04
80290;SHT30;69592;44.804;-0.550;2023-06-26T06:35:32;22.43;75.19
80290;SHT30;69592;44.804;-0.550;2023-06-26T06:37:57;22.55;75.19
80290;SHT30;69592;44.804;-0.550;2023-06-26T06:40:23;22.67;74.74
80290;SHT30;69592;44.804;-0.550;2023-06-26T06:42:48;22.79;73.47
80290;SHT30;69592;44.804;-0.550;2023-06-26T06:45:13;22.84;73.39
80290;SHT30;69592;44.804;-0.550;2023-06-26T06:47:39;22.94;73.60
80290;SHT30;69592;44.804;-0.550;2023-06-26T06:50:04;22.96;73.42
80290;SHT30;69592;44.804;-0.550;2023-06-26T06:52:39;22.99;73.29
80290;SHT30;69592;44.804;-0.550;2023-06-26T06:55:07;23.02;72.16
80290;SHT30;69592;44.804;-0.550;2023-06-26T06:57:35;22.82;71.43
80290;SHT30;69592;44.804;-0.550;2023-06-26T07:00:08;23.08;70.41
80290;SHT30;69592;44.804;-0.550;2023-06-26T07:02:38;22.99;70.25
80290;SHT30;69592;44.804;-0.550;2023-06-26T07:05:04;22.96;69.91
80290;SHT30;69592;44.804;-0.550;2023-06-26T07:07:32;23.06;69.41
80290;SHT30;69592;44.804;-0.550;2023-06-26T07:10:02;23.30;68.36
80290;SHT30;69592;44.804;-0.550;2023-06-26T07:12:28;23.33;68.39
80290;SHT30;69592;44.804;-0.550;2023-06-26T07:14:55;23.38;68.51
80290;SHT30;69592;44.804;-0.550;2023-06-26T07:17:20;23.23;68.73
80290;SHT30;69592;44.804;-0.550;2023-06-26T07:19:46;23.30;69.00
80290;SHT30;69592;44.804;-0.550;2023-06-26T07:22:12;23.33;69.24
80290;SHT30;69592;44.804;-0.550;2023-06-26T07:24:37;23.29;70.99
80290;SHT30;69592;44.804;-0.550;2023-06-26T07:27:03;23.29;70.55
80290;SHT30;69592;44.804;-0.550;2023-06-26T07:29:28;23.57;69.92
80290;SHT30;69592;44.804;-0.550;2023-06-26T07:31:54;23.63;68.67
80290;SHT30;69592;44.804;-0.550;2023-06-26T07:34:19;23.74;68.33
80290;SHT30;69592;44.804;-0.550;2023-06-26T07:36:44;23.32;67.47
80290;SHT30;69592;44.804;-0.550;2023-06-26T07:39:10;23.56;67.46
80290;SHT30;69592;44.804;-0.550;2023-06-26T07:41:35;23.80;67.11
80290;SHT30;69592;44.804;-0.550;2023-06-26T07:44:00;23.78;66.51
80290;SHT30;69592;44.804;-0.550;2023-06-26T07:46:26;23.98;67.00
80290;SHT30;69592;44.804;-0.550;2023-06-26T07:48:51;24.22;65.78
80290;SHT30;69592;44.804;-0.550;2023-06-26T07:51:17;24.31;66.24
80290;SHT30;69592;44.804;-0.550;2023-06-26T07:53:42;24.37;64.74
80290;SHT30;69592;44.804;-0.550;2023-06-26T07:56:08;24.52;64.08
80290;SHT30;69592;44.804;-0.550;2023-06-26T07:58:33;24.48;63.92
80290;SHT30;69592;44.804;-0.550;2023-06-26T08:00:58;23.98;63.74
80290;SHT30;69592;44.804;-0.550;2023-06-26T08:03:24;24.04;62.75
80290;SHT30;69592;44.804;-0.550;2023-06-26T08:05:49;24.20;62.32
80290;SHT30;69592;44.804;-0.550;2023-06-26T08:08:15;24.34;61.44
80290;SHT30;69592;44.804;-0.550;2023-06-26T08:10:40;24.52;59.53
80290;SHT30;69592;44.804;-0.550;2023-06-26T08:13:05;24.68;59.88
80290;SHT30;69592;44.804;-0.550;2023-06-26T08:15:31;24.56;60.83
80290;SHT30;69592;44.804;-0.550;2023-06-26T08:17:56;24.86;61.40
80290;SHT30;69592;44.804;-0.550;2023-06-26T08:20:22;24.72;58.60
80290;SHT30;69592;44.804;-0.550;2023-06-26T08:22:48;24.64;60.11
80290;SHT30;69592;44.804;-0.550;2023-06-26T08:25:15;24.54;60.47
80290;SHT30;69592;44.804;-0.550;2023-06-26T08:27:41;24.95;59.83
80290;SHT30;69592;44.804;-0.550;2023-06-26T08:30:06;24.82;57.79
80290;SHT30;69592;44.804;-0.550;2023-06-26T08:32:32;24.89;58.16
80290;SHT30;69592;44.804;-0.550;2023-06-26T08:34:57;24.95;56.82
80290;SHT30;69592;44.804;-0.550;2023-06-26T08:37:22;24.98;58.54
80290;SHT30;69592;44.804;-0.550;2023-06-26T08:39:48;25.36;57.46
80290;SHT30;69592;44.804;-0.550;2023-06-26T08:42:14;25.20;56.74
80290;SHT30;69592;44.804;-0.550;2023-06-26T08:44:39;25.26;58.43
80290;SHT30;69592;44.804;-0.550;2023-06-26T08:47:04;25.47;59.30
80290;SHT30;69592;44.804;-0.550;2023-06-26T08:49:56;25.59;57.09
80290;SHT30;69592;44.804;-0.550;2023-06-26T08:52:24;25.46;56.37
80290;SHT30;69592;44.804;-0.550;2023-06-26T08:54:58;25.44;57.81
80290;SHT30;69592;44.804;-0.550;2023-06-26T08:57:25;25.46;56.92
80290;SHT30;69592;44.804;-0.550;2023-06-26T08:59:52;25.36;57.27
80290;SHT30;69592;44.804;-0.550;2023-06-26T09:02:17;25.27;55.57
80290;SHT30;69592;44.804;-0.550;2023-06-26T09:04:45;25.33;53.61
80290;SHT30;69592;44.804;-0.550;2023-06-26T09:07:10;25.40;54.93
80290;SHT30;69592;44.804;-0.550;2023-06-26T09:09:36;25.75;54.61
80290;SHT30;69592;44.804;-0.550;2023-06-26T09:12:02;25.98;55.83
80290;SHT30;69592;44.804;-0.550;2023-06-26T09:14:29;25.92;55.61
80290;SHT30;69592;44.804;-0.550;2023-06-26T09:16:55;26.05;55.41
80290;SHT30;69592;44.804;-0.550;2023-06-26T09:19:20;25.60;47.13
80290;SHT30;69592;44.804;-0.550;2023-06-26T09:21:49;25.85;50.92
80290;SHT30;69592;44.804;-0.550;2023-06-26T09:24:16;26.05;53.25
80290;SHT30;69592;44.804;-0.550;2023-06-26T09:26:42;26.15;52.03
80290;SHT30;69592;44.804;-0.550;2023-06-26T09:29:09;26.20;51.78
80290;SHT30;69592;44.804;-0.550;2023-06-26T09:31:36;25.57;49.41
80290;SHT30;69592;44.804;-0.550;2023-06-26T09:34:03;25.75;50.21
80290;SHT30;69592;44.804;-0.550;2023-06-26T09:36:30;25.88;52.16
80290;SHT30;69592;44.804;-0.550;2023-06-26T09:39:08;26.18;51.12
80290;SHT30;69592;44.804;-0.550;2023-06-26T09:41:36;26.29;49.12
80290;SHT30;69592;44.804;-0.550;2023-06-26T09:44:06;26.39;44.42
80290;SHT30;69592;44.804;-0.550;2023-06-26T09:46:33;26.51;45.27
80290;SHT30;69592;44.804;-0.550;2023-06-26T09:49:06;26.31;48.03
80290;SHT30;69592;44.804;-0.550;2023-06-26T09:51:33;26.49;47.42
80290;SHT30;69592;44.804;-0.550;2023-06-26T09:53:59;26.52;49.63
80290;SHT30;69592;44.804;-0.550;2023-06-26T09:56:25;26.82;49.81
80290;SHT30;69592;44.804;-0.550;2023-06-26T09:58:50;26.79;46.76
80290;SHT30;69592;44.804;-0.550;2023-06-26T10:01:17;26.69;46.14
80290;SHT30;69592;44.804;-0.550;2023-06-26T10:03:43;26.46;46.19
80290;SHT30;69592;44.804;-0.550;2023-06-26T10:06:09;26.57;46.33
80290;SHT30;69592;44.804;-0.550;2023-06-26T10:08:39;26.43;45.46
80290;SHT30;69592;44.804;-0.550;2023-06-26T10:11:06;26.75;44.06
80290;SHT30;69592;44.804;-0.550;2023-06-26T10:13:39;26.75;44.92
80290;SHT30;69592;44.804;-0.550;2023-06-26T10:16:08;26.76;47.07
80290;SHT30;69592;44.804;-0.550;2023-06-26T10:18:41;26.92;45.71
80290;SHT30;69592;44.804;-0.550;2023-06-26T10:21:08;26.97;45.47
80290;SHT30;69592;44.804;-0.550;2023-06-26T10:23:36;26.55;45.55
80290;SHT30;69592;44.804;-0.550;2023-06-26T10:26:06;27.16;46.80
80290;SHT30;69592;44.804;-0.550;2023-06-26T10:28:33;27.44;46.56
80290;SHT30;69592;44.804;-0.550;2023-06-26T10:31:01;27.31;44.75
80290;SHT30;69592;44.804;-0.550;2023-06-26T10:33:28;27.13;44.66
80290;SHT30;69592;44.804;-0.550;2023-06-26T10:36:12;27.45;46.45
80290;SHT30;69592;44.804;-0.550;2023-06-26T10:39:11;27.80;46.46
80290;SHT30;69592;44.804;-0.550;2023-06-26T10:41:38;27.47;44.52
80290;SHT30;69592;44.804;-0.550;2023-06-26T10:44:39;27.95;45.54
80290;SHT30;69592;44.804;-0.550;2023-06-26T10:47:05;27.75;44.23
80290;SHT30;69592;44.804;-0.550;2023-06-26T10:49:30;27.59;44.79
80290;SHT30;69592;44.804;-0.550;2023-06-26T10:52:00;27.87;45.98
80290;SHT30;69592;44.804;-0.550;2023-06-26T10:54:29;28.25;46.99
80290;SHT30;69592;44.804;-0.550;2023-06-26T10:56:55;28.22;44.38
80290;SHT30;69592;44.804;-0.550;2023-06-26T10:59:25;28.06;44.59
80290;SHT30;69592;44.804;-0.550;2023-06-26T11:04:40;27.98;44.07
80290;SHT30;69592;44.804;-0.550;2023-06-26T11:07:23;28.18;44.24
80290;SHT30;69592;44.804;-0.550;2023-06-26T11:12:43;28.13;43.96
80290;SHT30;69592;44.804;-0.550;2023-06-26T11:15:14;28.09;44.22
80290;SHT30;69592;44.804;-0.550;2023-06-26T11:17:41;28.10;45.37
80290;SHT30;69592;44.804;-0.550;2023-06-26T11:20:12;28.42;45.94
80290;SHT30;69592;44.804;-0.550;2023-06-26T11:22:39;28.60;45.97
80290;SHT30;69592;44.804;-0.550;2023-06-26T11:25:06;28.69;46.23
80290;SHT30;69592;44.804;-0.550;2023-06-26T11:30:05;28.90;45.28
80290;SHT30;69592;44.804;-0.550;2023-06-26T11:32:31;28.63;45.24
80290;SHT30;69592;44.804;-0.550;2023-06-26T11:34:58;28.67;45.05
80290;SHT30;69592;44.804;-0.550;2023-06-26T11:37:24;28.35;45.98
80290;SHT30;69592;44.804;-0.550;2023-06-26T11:39:50;28.79;46.78
80290;SHT30;69592;44.804;-0.550;2023-06-26T11:42:16;28.93;45.88
80290;SHT30;69592;44.804;-0.550;2023-06-26T11:44:43;28.89;46.63
80290;SHT30;69592;44.804;-0.550;2023-06-26T11:47:18;28.91;46.71
80290;SHT30;69592;44.804;-0.550;2023-06-26T11:49:45;28.67;46.16
80290;SHT30;69592;44.804;-0.550;2023-06-26T11:52:11;28.04;47.52
80290;SHT30;69592;44.804;-0.550;2023-06-26T11:54:36;28.22;47.62
80290;SHT30;69592;44.804;-0.550;2023-06-26T11:57:03;28.63;47.53
80290;SHT30;69592;44.804;-0.550;2023-06-26T11:59:34;28.55;47.73
80290;SHT30;69592;44.804;-0.550;2023-06-26T12:02:04;28.74;46.77
80290;SHT30;69592;44.804;-0.550;2023-06-26T12:04:31;28.90;47.85
80290;SHT30;69592;44.804;-0.550;2023-06-26T12:06:56;28.90;47.72
80290;SHT30;69592;44.804;-0.550;2023-06-26T12:09:23;28.71;48.45
80290;SHT30;69592;44.804;-0.550;2023-06-26T12:11:52;29.01;47.77
80290;SHT30;69592;44.804;-0.550;2023-06-26T12:14:20;29.42;47.67
80290;SHT30;69592;44.804;-0.550;2023-06-26T12:16:45;29.45;47.45
80290;SHT30;69592;44.804;-0.550;2023-06-26T12:19:12;29.25;47.07
80290;SHT30;69592;44.804;-0.550;2023-06-26T12:24:14;29.41;46.75
80290;SHT30;69592;44.804;-0.550;2023-06-26T12:26:50;30.03;45.95
80290;SHT30;69592;44.804;-0.550;2023-06-26T12:29:17;29.57;46.73
80290;SHT30;69592;44.804;-0.550;2023-06-26T12:31:50;29.14;46.89
80290;SHT30;69592;44.804;-0.550;2023-06-26T12:34:21;29.59;47.83
80290;SHT30;69592;44.804;-0.550;2023-06-26T12:36:50;29.25;47.49
80290;SHT30;69592;44.804;-0.550;2023-06-26T12:39:20;29.39;48.03
80290;SHT30;69592;44.804;-0.550;2023-06-26T12:41:52;29.24;46.85
80290;SHT30;69592;44.804;-0.550;2023-06-26T12:44:25;29.04;47.74
80290;SHT30;69592;44.804;-0.550;2023-06-26T12:47:02;29.22;48.58
80290;SHT30;69592;44.804;-0.550;2023-06-26T12:49:36;29.45;48.11
80290;SHT30;69592;44.804;-0.550;2023-06-26T12:52:07;29.17;47.94
80290;SHT30;69592;44.804;-0.550;2023-06-26T12:54:34;28.80;48.64
80290;SHT30;69592;44.804;-0.550;2023-06-26T12:57:00;28.87;48.64
80290;SHT30;69592;44.804;-0.550;2023-06-26T12:59:25;29.01;48.81
80290;SHT30;69592;44.804;-0.550;2023-06-26T13:01:51;28.89;48.42
80290;SHT30;69592;44.804;-0.550;2023-06-26T13:04:16;29.08;49.16
80290;SHT30;69592;44.804;-0.550;2023-06-26T13:06:42;29.45;48.50
80290;SHT30;69592;44.804;-0.550;2023-06-26T13:09:08;29.74;47.72
80290;SHT30;69592;44.804;-0.550;2023-06-26T13:11:33;29.76;47.26
80290;SHT30;69592;44.804;-0.550;2023-06-26T13:14:00;28.89;49.27
80290;SHT30;69592;44.804;-0.550;2023-06-26T13:16:26;29.11;49.87
80290;SHT30;69592;44.804;-0.550;2023-06-26T13:18:51;28.87;49.34
80290;SHT30;69592;44.804;-0.550;2023-06-26T13:21:17;28.76;49.44
80290;SHT30;69592;44.804;-0.550;2023-06-26T13:23:43;29.28;49.32
80290;SHT30;69592;44.804;-0.550;2023-06-26T13:26:09;29.41;48.65
80290;SHT30;69592;44.804;-0.550;2023-06-26T13:28:35;29.38;48.35
80290;SHT30;69592;44.804;-0.550;2023-06-26T13:31:01;29.20;48.13
80290;SHT30;69592;44.804;-0.550;2023-06-26T13:33:27;29.11;49.73
80290;SHT30;69592;44.804;-0.550;2023-06-26T13:35:52;29.50;47.80
80290;SHT30;69592;44.804;-0.550;2023-06-26T13:38:22;29.57;47.77
80290;SHT30;69592;44.804;-0.550;2023-06-26T13:40:54;29.55;47.89
80290;SHT30;69592;44.804;-0.550;2023-06-26T13:43:22;29.00;49.23
80290;SHT30;69592;44.804;-0.550;2023-06-26T13:45:49;28.59;51.06
80290;SHT30;69592;44.804;-0.550;2023-06-26T13:48:14;28.40;51.04
80290;SHT30;69592;44.804;-0.550;2023-06-26T13:50:40;28.93;49.92
80290;SHT30;69592;44.804;-0.550;2023-06-26T13:53:05;29.41;49.53
80290;SHT30;69592;44.804;-0.550;2023-06-26T13:55:31;29.95;47.41
80290;SHT30;69592;44.804;-0.550;2023-06-26T13:57:56;29.38;48.37
80290;SHT30;69592;44.804;-0.550;2023-06-26T14:00:22;29.79;48.02
80290;SHT30;69592;44.804;-0.550;2023-06-26T14:02:48;29.44;48.47
80290;SHT30;69592;44.804;-0.550;2023-06-26T14:05:13;29.39;49.59
80290;SHT30;69592;44.804;-0.550;2023-06-26T14:07:39;28.99;49.45
80290;SHT30;69592;44.804;-0.550;2023-06-26T14:10:05;29.24;49.24
80290;SHT30;69592;44.804;-0.550;2023-06-26T14:12:33;28.81;49.63
80290;SHT30;69592;44.804;-0.550;2023-06-26T14:15:00;28.50;50.17
80290;SHT30;69592;44.804;-0.550;2023-06-26T14:17:25;28.56;49.90
80290;SHT30;69592;44.804;-0.550;2023-06-26T14:19:51;28.46;50.43
80290;SHT30;69592;44.804;-0.550;2023-06-26T14:22:17;28.42;49.74
80290;SHT30;69592;44.804;-0.550;2023-06-26T14:24:42;28.50;50.32
80290;SHT30;69592;44.804;-0.550;2023-06-26T14:27:08;28.79;49.11
80290;SHT30;69592;44.804;-0.550;2023-06-26T14:29:33;29.07;49.03
80290;SHT30;69592;44.804;-0.550;2023-06-26T14:31:58;29.38;50.67
80290;SHT30;69592;44.804;-0.550;2023-06-26T14:34:24;29.28;48.49
80290;SHT30;69592;44.804;-0.550;2023-06-26T14:36:49;29.10;49.00
80290;SHT30;69592;44.804;-0.550;2023-06-26T14:39:14;29.01;48.93
80290;SHT30;69592;44.804;-0.550;2023-06-26T14:41:41;28.86;49.32
80290;SHT30;69592;44.804;-0.550;2023-06-26T14:44:07;29.07;48.72
80290;SHT30;69592;44.804;-0.550;2023-06-26T14:46:35;29.65;48.32
80290;SHT30;69592;44.804;-0.550;2023-06-26T14:49:00;28.77;50.09
80290;SHT30;69592;44.804;-0.550;2023-06-26T14:51:25;29.47;49.44
80290;SHT30;69592;44.804;-0.550;2023-06-26T14:53:51;29.92;49.00
80290;SHT30;69592;44.804;-0.550;2023-06-26T14:56:16;30.54;48.17
80290;SHT30;69592;44.804;-0.550;2023-06-26T14:58:42;30.50;46.49
80290;SHT30;69592;44.804;-0.550;2023-06-26T15:01:07;30.86;47.04
80290;SHT30;69592;44.804;-0.550;2023-06-26T15:03:34;30.84;46.05
80290;SHT30;69592;44.804;-0.550;2023-06-26T15:05:59;31.07;45.55
80290;SHT30;69592;44.804;-0.550;2023-06-26T15:08:25;30.95;46.41
80290;SHT30;69592;44.804;-0.550;2023-06-26T15:10:50;30.35;47.37
80290;SHT30;69592;44.804;-0.550;2023-06-26T15:13:15;29.78;48.19
80290;SHT30;69592;44.804;-0.550;2023-06-26T15:15:41;29.30;48.30
80290;SHT30;69592;44.804;-0.550;2023-06-26T15:18:06;29.41;48.58
80290;SHT30;69592;44.804;-0.550;2023-06-26T15:20:32;30.25;47.51
80290;SHT30;69592;44.804;-0.550;2023-06-26T15:22:57;29.99;46.60
80290;SHT30;69592;44.804;-0.550;2023-06-26T15:25:23;29.08;48.11
80290;SHT30;69592;44.804;-0.550;2023-06-26T15:27:49;29.59;47.51
80290;SHT30;69592;44.804;-0.550;2023-06-26T15:30:15;29.14;47.34